Time;durP1;ratioP1;P1;durP2;ratioP2;P2;SDS_P1;SDS_P2;PMS_P1;PMS_P2;Temp;Humidity;BMP_temperature;BMP_pressure;BME280_temperature;BME280_humidity;BME280_pressure;Samples;Min_cycle;Max_cycle;Signal;HPM_P1;HPM_P2
2022/09/25 00:00:58;;;;;;;11.57;5.10;;;9.40;99.90;;;;;;5091175;28;20115;-60
2022/09/25 00:03:26;;;;;;;11.90;5.45;;;9.40;99.90;;;;;;5093058;28;20070;-60
2022/09/25 00:05:52;;;;;;;11.38;4.25;;;9.30;99.90;;;;;;5090054;28;20381;-60
2022/09/25 00:08:18;;;;;;;10.10;4.32;;;9.30;99.90;;;;;;5091588;28;20048;-60
2022/09/25 00:10:47;;;;;;;10.85;4.30;;;9.30;99.90;;;;;;5092927;28;20093;-60
2022/09/25 00:13:14;;;;;;;11.07;4.43;;;9.30;99.90;;;;;;5091926;28;20508;-60
2022/09/25 00:15:49;;;;;;;9.82;5.55;;;9.20;99.90;;;;;;5092560;28;20040;-60
2022/09/25 00:18:15;;;;;;;13.02;5.85;;;9.20;99.90;;;;;;5092926;28;20039;-60
2022/09/25 00:20:41;;;;;;;9.00;3.88;;;9.10;99.90;;;;;;5073700;28;20051;-60
2022/09/25 00:23:07;;;;;;;11.02;4.57;;;9.10;99.90;;;;;;5091930;28;20056;-60
2022/09/25 00:25:33;;;;;;;9.77;4.38;;;9.10;99.90;;;;;;5092531;28;20503;-60
2022/09/25 00:27:59;;;;;;;7.93;4.00;;;9.10;99.90;;;;;;5089458;28;20123;-60
2022/09/25 00:30:24;;;;;;;11.60;4.40;;;9.00;99.90;;;;;;5092489;28;20069;-60
2022/09/25 00:32:50;;;;;;;9.85;4.57;;;9.00;99.90;;;;;;5057359;28;20047;-60
2022/09/25 00:35:16;;;;;;;10.38;4.57;;;9.00;99.90;;;;;;5091703;28;20046;-60
2022/09/25 00:37:41;;;;;;;9.50;3.90;;;9.00;99.90;;;;;;5091373;28;20504;-60
2022/09/25 00:40:08;;;;;;;8.57;3.70;;;8.90;99.90;;;;;;5073002;28;20488;-60
2022/09/25 00:42:35;;;;;;;7.88;3.95;;;8.90;99.90;;;;;;5074141;28;20051;-60
2022/09/25 00:45:17;;;;;;;12.55;4.45;;;8.90;99.90;;;;;;5092006;28;20036;-60
2022/09/25 00:47:56;;;;;;;10.70;4.38;;;8.80;99.90;;;;;;5091527;28;20032;-60
2022/09/25 00:50:37;;;;;;;10.65;4.70;;;8.90;99.90;;;;;;5092339;28;20075;-60
2022/09/25 00:53:14;;;;;;;8.60;4.07;;;8.90;99.90;;;;;;5073819;28;20040;-60
2022/09/25 00:55:42;;;;;;;11.00;4.72;;;8.90;99.90;;;;;;5091633;28;20043;-60
2022/09/25 00:58:08;;;;;;;10.52;4.53;;;8.80;99.90;;;;;;5091786;28;20040;-60
2022/09/25 01:00:34;;;;;;;10.27;3.65;;;8.90;99.90;;;;;;5090855;28;20051;-60
2022/09/25 01:03:01;;;;;;;10.43;3.75;;;8.90;99.90;;;;;;5056295;28;20471;-60
2022/09/25 01:05:31;;;;;;;13.50;4.22;;;8.80;99.90;;;;;;5092217;28;20040;-60
2022/09/25 01:08:00;;;;;;;13.38;4.43;;;8.80;99.90;;;;;;5091817;28;20040;-60
2022/09/25 01:10:26;;;;;;;9.68;4.10;;;8.80;99.90;;;;;;5073335;28;20047;-60
2022/09/25 01:12:55;;;;;;;10.20;4.43;;;8.80;99.90;;;;;;5091660;28;20119;-60
2022/09/25 01:15:37;;;;;;;8.35;4.40;;;8.80;99.90;;;;;;5091209;28;20123;-60
2022/09/25 01:18:29;;;;;;;9.75;4.65;;;8.80;99.90;;;;;;5091383;28;20085;-60
2022/09/25 01:21:02;;;;;;;13.95;5.00;;;8.70;99.90;;;;;;5091527;28;20043;-60
2022/09/25 01:24:11;;;;;;;11.02;4.70;;;8.70;99.90;;;;;;5089905;28;20109;-60
2022/09/25 01:26:45;;;;;;;10.52;4.78;;;8.70;99.90;;;;;;5074011;28;20044;-60
2022/09/25 01:29:23;;;;;;;8.98;4.85;;;8.70;99.90;;;;;;5090766;28;20044;-59
2022/09/25 01:32:05;;;;;;;9.45;3.78;;;8.80;99.90;;;;;;5090106;28;20046;-60
2022/09/25 01:34:53;;;;;;;7.10;3.17;;;8.80;99.90;;;;;;5091972;28;20410;-60
2022/09/25 01:37:30;;;;;;;8.63;3.95;;;8.90;99.90;;;;;;5089880;28;20079;-60
2022/09/25 01:40:02;;;;;;;10.55;4.03;;;9.00;99.90;;;;;;5093985;28;20054;-60
2022/09/25 01:42:38;;;;;;;10.07;4.32;;;9.10;99.90;;;;;;5095657;28;20398;-60
2022/09/25 01:45:08;;;;;;;7.47;3.42;;;9.10;99.90;;;;;;5076053;28;20491;-60
2022/09/25 01:47:39;;;;;;;12.93;3.90;;;9.10;99.90;;;;;;5095637;28;20036;-60
2022/09/25 01:50:14;;;;;;;7.03;2.70;;;9.10;99.90;;;;;;5076894;28;20434;-60
2022/09/25 01:52:44;;;;;;;15.18;5.13;;;9.20;99.90;;;;;;5094803;28;20036;-60
2022/09/25 01:55:29;;;;;;;10.68;3.65;;;9.20;99.90;;;;;;5095407;28;20032;-60
2022/09/25 01:58:27;;;;;;;8.52;3.20;;;9.10;99.90;;;;;;5094052;28;20028;-60
2022/09/25 02:00:59;;;;;;;7.05;2.88;;;9.10;99.90;;;;;;5085919;28;20102;-60
2022/09/25 02:03:31;;;;;;;6.95;3.60;;;9.20;99.90;;;;;;5094007;28;20047;-60
2022/09/25 02:06:01;;;;;;;8.85;3.65;;;9.10;99.90;;;;;;5075807;28;20396;-60
2022/09/25 02:08:35;;;;;;;9.63;3.17;;;9.10;99.90;;;;;;5077639;28;20070;-60
2022/09/25 02:11:04;;;;;;;6.53;3.40;;;9.10;99.90;;;;;;5093311;28;20047;-60
2022/09/25 02:13:53;;;;;;;9.43;3.03;;;9.20;99.90;;;;;;5076075;28;20036;-60
2022/09/25 02:16:24;;;;;;;6.82;3.13;;;9.10;99.90;;;;;;5076746;28;20545;-60
2022/09/25 02:22:09;;;;;;;8.85;2.60;;;9.10;99.90;;;;;;5094843;28;20055;-60
2022/09/25 02:24:49;;;;;;;7.75;2.72;;;9.00;99.90;;;;;;5039362;28;20513;-60
2022/09/25 02:27:19;;;;;;;6.82;3.13;;;9.00;99.90;;;;;;5069280;28;20143;-60
2022/09/25 02:29:45;;;;;;;6.03;2.97;;;8.90;99.90;;;;;;5053919;28;20044;-60
2022/09/25 02:32:17;;;;;;;6.25;2.47;;;8.90;99.90;;;;;;5053648;28;20048;-60
2022/09/25 02:34:43;;;;;;;8.40;2.83;;;8.80;99.90;;;;;;5052485;28;20493;-60
2022/09/25 02:37:14;;;;;;;7.38;2.53;;;8.80;99.90;;;;;;5053782;28;20063;-59
2022/09/25 02:39:42;;;;;;;5.47;2.25;;;8.80;99.90;;;;;;5052611;28;20056;-60
2022/09/25 02:42:14;;;;;;;5.22;2.08;;;8.80;99.90;;;;;;5053836;28;20084;-60
2022/09/25 02:44:39;;;;;;;7.18;2.72;;;8.80;99.90;;;;;;5054222;28;20041;-60
2022/09/25 02:47:33;;;;;;;7.30;2.60;;;8.70;99.90;;;;;;5068209;28;20102;-59
2022/09/25 02:50:20;;;;;;;9.77;3.60;;;8.70;99.90;;;;;;5069042;28;20371;-60
2022/09/25 02:52:49;;;;;;;6.85;2.58;;;8.60;99.90;;;;;;5068831;28;20131;-60
2022/09/25 02:55:33;;;;;;;5.32;2.13;;;8.60;99.90;;;;;;5035366;28;20048;-60
2022/09/25 02:58:12;;;;;;;5.25;2.53;;;8.60;99.90;;;;;;5068694;28;20045;-60
2022/09/25 03:00:40;;;;;;;5.70;2.33;;;8.50;99.90;;;;;;5069520;28;20068;-60
2022/09/25 03:03:10;;;;;;;7.07;2.55;;;8.50;99.90;;;;;;5034705;28;20057;-59
2022/09/25 03:05:37;;;;;;;7.68;2.50;;;8.50;99.90;;;;;;5053762;28;20131;-60
2022/09/25 03:10:47;;;;;;;5.88;1.77;;;8.50;99.90;;;;;;5053400;28;20036;-60
2022/09/25 03:13:14;;;;;;;8.00;2.83;;;8.50;99.90;;;;;;5053731;28;20478;-60
2022/09/25 03:15:43;;;;;;;6.45;2.38;;;8.60;99.90;;;;;;5052742;28;20041;-60
2022/09/25 03:18:11;;;;;;;11.75;3.83;;;8.60;99.90;;;;;;5051826;28;20041;-60
2022/09/25 03:20:36;;;;;;;5.00;1.88;;;8.80;99.90;;;;;;5053502;28;20087;-60
2022/09/25 03:23:02;;;;;;;5.78;1.58;;;9.00;99.90;;;;;;5065091;28;20786;-60
2022/09/25 03:25:28;;;;;;;5.45;1.55;;;9.30;99.90;;;;;;5056050;28;20044;-59
2022/09/25 03:27:53;;;;;;;5.90;1.35;;;9.50;99.90;;;;;;5101838;28;20031;-59
2022/09/25 03:30:19;;;;;;;4.65;1.40;;;9.80;99.90;;;;;;5092209;28;20040;-60
2022/09/25 03:32:44;;;;;;;6.18;1.90;;;10.00;99.90;;;;;;5110857;28;20071;-60
2022/09/25 03:35:10;;;;;;;5.03;1.17;;;10.10;99.90;;;;;;5075439;28;20046;-60
2022/09/25 03:37:36;;;;;;;6.28;1.40;;;10.10;99.90;;;;;;5110116;28;20043;-60
2022/09/25 03:40:02;;;;;;;8.05;1.63;;;10.10;99.90;;;;;;5110491;28;20043;-60
2022/09/25 03:42:31;;;;;;;3.53;1.20;;;10.10;99.90;;;;;;5078538;28;20041;-60
2022/09/25 03:44:56;;;;;;;4.43;1.20;;;10.10;99.90;;;;;;5068980;28;20450;-60
2022/09/25 03:47:22;;;;;;;5.75;1.20;;;10.10;99.90;;;;;;5070012;28;20075;-59
2022/09/25 03:49:48;;;;;;;6.07;1.45;;;10.00;99.90;;;;;;5069631;28;20474;-60
2022/09/25 03:52:13;;;;;;;5.40;1.20;;;10.00;99.90;;;;;;5077363;28;20043;-59
2022/09/25 03:54:40;;;;;;;4.72;1.75;;;10.00;99.90;;;;;;5071117;28;20040;-59
2022/09/25 03:57:06;;;;;;;8.75;1.55;;;10.00;99.90;;;;;;5085333;28;20040;-60
2022/09/25 03:59:31;;;;;;;5.20;1.58;;;10.00;99.90;;;;;;5082246;28;20039;-59
2022/09/25 04:02:01;;;;;;;4.68;1.27;;;10.00;99.90;;;;;;5086365;28;20083;-59
2022/09/25 04:04:26;;;;;;;4.93;1.65;;;10.00;99.90;;;;;;5085736;28;20146;-59
2022/09/25 04:06:52;;;;;;;6.05;1.30;;;10.00;99.90;;;;;;5067768;28;20131;-59
2022/09/25 04:09:18;;;;;;;5.10;1.30;;;10.00;99.90;;;;;;5051919;28;20044;-59
2022/09/25 04:11:43;;;;;;;4.35;1.30;;;10.00;99.90;;;;;;5077606;28;20093;-59
2022/09/25 04:14:11;;;;;;;5.60;1.50;;;10.10;99.90;;;;;;5089868;28;20044;-59
2022/09/25 04:16:37;;;;;;;3.80;1.30;;;10.10;99.90;;;;;;5072111;28;20051;-59
2022/09/25 04:19:03;;;;;;;6.05;1.55;;;10.10;99.90;;;;;;5053795;28;20557;-59
2022/09/25 04:21:28;;;;;;;5.10;1.60;;;10.10;99.90;;;;;;5089788;28;20133;-59
2022/09/25 04:26:38;;;;;;;5.15;1.40;;;10.10;99.90;;;;;;5077067;28;20484;-59
2022/09/25 04:29:04;;;;;;;7.60;1.73;;;10.20;99.90;;;;;;5051236;28;20657;-59
2022/09/25 04:31:31;;;;;;;5.30;1.33;;;10.20;99.90;;;;;;5069558;28;20435;-59
2022/09/25 04:33:56;;;;;;;5.43;1.60;;;10.40;99.90;;;;;;5050245;28;20056;-59
2022/09/25 04:36:22;;;;;;;5.53;1.35;;;10.50;99.90;;;;;;5069401;28;20654;-59
2022/09/25 04:38:48;;;;;;;8.00;1.90;;;10.60;99.90;;;;;;5051161;28;20135;-59
2022/09/25 04:41:18;;;;;;;6.97;1.60;;;10.70;99.90;;;;;;5066775;28;20508;-59
2022/09/25 04:43:44;;;;;;;5.55;2.15;;;10.70;99.90;;;;;;5052047;28;20056;-59
2022/09/25 04:46:12;;;;;;;12.65;7.28;;;10.80;99.90;;;;;;5034664;28;20045;-59
2022/09/25 04:48:38;;;;;;;11.30;7.63;;;10.80;99.90;;;;;;5050608;28;20041;-59
2022/09/25 04:51:05;;;;;;;8.65;6.40;;;10.80;99.90;;;;;;5050933;28;20044;-59
2022/09/25 04:53:33;;;;;;;7.60;3.17;;;10.70;99.90;;;;;;5050666;28;20090;-59
2022/09/25 04:56:10;;;;;;;6.60;2.10;;;10.70;99.90;;;;;;5056571;28;20566;-59
2022/09/25 04:58:36;;;;;;;8.52;2.20;;;10.60;99.90;;;;;;5069282;28;20036;-59
2022/09/25 05:01:08;;;;;;;7.70;2.80;;;10.60;99.90;;;;;;5067392;28;20084;-59
2022/09/25 05:03:33;;;;;;;10.05;4.18;;;10.50;99.90;;;;;;5069458;28;20447;-59
2022/09/25 05:05:59;;;;;;;14.23;3.85;;;10.50;99.90;;;;;;5068774;28;20036;-59
2022/09/25 05:08:26;;;;;;;7.97;3.38;;;10.50;99.90;;;;;;5050558;28;20440;-59
2022/09/25 05:10:52;;;;;;;10.35;6.47;;;10.40;99.90;;;;;;5074876;28;20079;-59
2022/09/25 05:13:17;;;;;;;11.77;6.70;;;10.40;99.90;;;;;;5046967;28;20124;-59
2022/09/25 05:15:43;;;;;;;10.15;5.78;;;10.30;99.90;;;;;;5095046;28;20040;-59
2022/09/25 05:18:18;;;;;;;15.70;7.65;;;10.30;99.90;;;;;;5096381;28;20121;-59
2022/09/25 05:20:44;;;;;;;7.40;3.53;;;10.30;99.90;;;;;;5091554;28;20512;-59
2022/09/25 05:23:10;;;;;;;6.68;3.35;;;10.30;99.90;;;;;;5071962;28;20784;-60
2022/09/25 05:25:35;;;;;;;12.77;2.45;;;10.20;99.90;;;;;;5076979;28;20051;-59
2022/09/25 05:28:01;;;;;;;5.70;1.70;;;10.20;99.90;;;;;;5074969;28;20462;-59
2022/09/25 05:30:30;;;;;;;8.50;2.33;;;10.20;99.90;;;;;;5112831;28;20145;-59
2022/09/25 05:32:58;;;;;;;9.15;2.65;;;10.20;99.90;;;;;;5112695;28;20419;-59
2022/09/25 05:35:26;;;;;;;7.07;2.40;;;10.20;99.90;;;;;;5073910;28;20036;-59
2022/09/25 05:37:52;;;;;;;6.50;2.30;;;10.20;99.90;;;;;;5071524;28;20052;-59
2022/09/25 05:40:22;;;;;;;7.93;1.85;;;10.20;99.90;;;;;;5071213;28;20405;-59
2022/09/25 05:42:49;;;;;;;7.55;2.10;;;10.20;99.90;;;;;;5083488;28;20051;-59
2022/09/25 05:45:16;;;;;;;6.97;3.83;;;10.10;99.90;;;;;;5074822;28;20050;-59
2022/09/25 05:47:42;;;;;;;5.93;3.00;;;10.10;99.90;;;;;;5057681;28;20055;-59
2022/09/25 05:50:10;;;;;;;8.80;3.83;;;10.10;99.90;;;;;;5091424;28;20490;-59
2022/09/25 05:52:36;;;;;;;6.40;2.70;;;10.10;99.90;;;;;;5092546;28;20036;-59
2022/09/25 05:55:04;;;;;;;7.28;3.45;;;10.00;99.90;;;;;;5074017;28;20035;-59
2022/09/25 05:57:34;;;;;;;8.65;3.65;;;10.00;99.90;;;;;;5056674;28;20401;-59
2022/09/25 06:00:01;;;;;;;5.88;3.20;;;9.90;99.90;;;;;;5073512;28;20400;-59
2022/09/25 06:02:26;;;;;;;7.05;4.15;;;9.90;99.90;;;;;;5091053;28;20048;-59
2022/09/25 06:04:52;;;;;;;6.55;3.58;;;9.90;99.90;;;;;;5091072;28;20503;-59
2022/09/25 06:07:18;;;;;;;7.40;3.05;;;9.90;99.90;;;;;;5092338;28;20032;-59
2022/09/25 06:09:43;;;;;;;5.53;2.38;;;9.80;99.90;;;;;;5092390;28;20039;-59
2022/09/25 06:12:09;;;;;;;8.27;5.72;;;9.80;99.90;;;;;;5078430;28;20149;-59
2022/09/25 06:14:36;;;;;;;13.63;6.05;;;9.80;99.90;;;;;;5054188;28;20382;-59
2022/09/25 06:17:02;;;;;;;9.98;3.53;;;9.80;99.90;;;;;;5071520;28;20037;-59
2022/09/25 06:19:28;;;;;;;8.32;2.70;;;9.80;99.90;;;;;;5071140;28;20051;-59
2022/09/25 06:21:55;;;;;;;6.57;2.65;;;9.80;99.90;;;;;;5053180;28;20094;-59
2022/09/25 06:24:20;;;;;;;7.75;3.67;;;9.80;99.90;;;;;;5071222;28;20057;-59
2022/09/25 06:26:46;;;;;;;9.77;5.28;;;9.80;99.90;;;;;;5079812;28;20047;-59
2022/09/25 06:29:12;;;;;;;11.73;8.50;;;9.90;99.90;;;;;;5074252;28;20048;-59
2022/09/25 06:31:38;;;;;;;10.80;7.97;;;9.90;99.90;;;;;;5089166;28;20054;-59
2022/09/25 06:34:04;;;;;;;12.20;10.90;;;10.00;99.90;;;;;;5090677;28;20073;-59
2022/09/25 06:36:31;;;;;;;18.77;16.05;;;10.00;99.90;;;;;;5054573;28;20079;-59
2022/09/25 06:38:56;;;;;;;15.57;14.02;;;10.10;99.90;;;;;;5090948;28;20109;-59
2022/09/25 06:41:23;;;;;;;6.32;3.83;;;10.10;99.90;;;;;;5070047;28;20718;-59
2022/09/25 06:43:52;;;;;;;15.23;8.25;;;10.20;99.90;;;;;;5067260;28;20048;-59
2022/09/25 06:46:21;;;;;;;6.25;3.15;;;10.20;99.90;;;;;;5105356;28;20118;-59
2022/09/25 06:48:53;;;;;;;11.18;5.28;;;10.30;99.90;;;;;;5109265;28;20036;-59
2022/09/25 06:51:19;;;;;;;9.88;4.07;;;10.40;99.90;;;;;;5055986;28;20480;-59
2022/09/25 06:53:45;;;;;;;10.50;7.93;;;10.40;99.90;;;;;;5072561;28;20052;-59
2022/09/25 06:56:11;;;;;;;14.85;11.68;;;10.40;99.90;;;;;;5073327;28;20488;-59
2022/09/25 06:58:36;;;;;;;14.23;10.70;;;10.50;99.90;;;;;;5073328;28;20118;-59
2022/09/25 07:01:02;;;;;;;16.58;12.50;;;10.50;99.90;;;;;;5089665;28;20089;-59
2022/09/25 07:03:44;;;;;;;9.38;7.35;;;10.60;99.90;;;;;;5056441;28;20044;-59
2022/09/25 07:06:15;;;;;;;7.18;4.55;;;10.60;99.90;;;;;;5080482;28;20028;-59
2022/09/25 07:08:44;;;;;;;8.65;5.22;;;10.70;99.90;;;;;;5052495;28;20477;-59
2022/09/25 07:11:16;;;;;;;7.28;3.10;;;10.70;99.90;;;;;;5074476;28;20042;-59
2022/09/25 07:13:42;;;;;;;7.28;2.67;;;10.80;99.90;;;;;;5095907;28;20489;-59
2022/09/25 07:16:12;;;;;;;7.43;3.25;;;10.90;99.90;;;;;;5107728;28;20047;-59
2022/09/25 07:18:38;;;;;;;8.98;4.03;;;10.90;99.90;;;;;;5061126;28;20040;-59
2022/09/25 07:21:10;;;;;;;6.97;3.25;;;11.00;99.90;;;;;;5075231;28;20043;-59
2022/09/25 07:23:36;;;;;;;9.38;3.17;;;11.10;99.90;;;;;;5058344;28;20060;-59
2022/09/25 07:26:09;;;;;;;11.73;4.75;;;11.20;99.90;;;;;;5070637;28;20746;-59
2022/09/25 07:28:36;;;;;;;17.55;10.68;;;11.30;99.90;;;;;;5068820;28;20071;-59
2022/09/25 07:31:20;;;;;;;11.90;6.13;;;11.50;99.90;;;;;;5071918;28;20058;-59
2022/09/25 07:33:46;;;;;;;15.50;7.65;;;11.60;99.90;;;;;;5103029;28;20051;-59
2022/09/25 07:36:14;;;;;;;27.58;15.30;;;11.70;99.90;;;;;;5062234;28;20405;-59
2022/09/25 07:38:40;;;;;;;14.30;6.60;;;11.70;99.90;;;;;;5070875;28;20115;-59
2022/09/25 07:41:09;;;;;;;8.63;3.97;;;11.80;99.90;;;;;;5073933;28;20725;-59
2022/09/25 07:43:37;;;;;;;8.60;3.40;;;11.90;99.90;;;;;;5069840;28;20046;-59
2022/09/25 07:46:04;;;;;;;7.28;2.53;;;11.90;99.90;;;;;;5078130;28;20047;-59
2022/09/25 07:48:30;;;;;;;6.95;3.40;;;12.00;99.90;;;;;;5072597;28;20132;-59
2022/09/25 07:51:04;;;;;;;6.85;1.92;;;12.10;99.90;;;;;;5055760;28;20051;-59
2022/09/25 07:53:30;;;;;;;4.78;1.83;;;12.30;99.90;;;;;;5054447;28;20085;-60
2022/09/25 07:56:00;;;;;;;9.75;1.65;;;12.40;99.90;;;;;;5085257;28;20028;-59
2022/09/25 07:58:27;;;;;;;8.75;1.90;;;12.50;99.90;;;;;;5049555;28;20118;-60
2022/09/25 08:00:58;;;;;;;6.35;1.58;;;12.60;99.90;;;;;;5071470;28;20113;-59
2022/09/25 08:03:23;;;;;;;7.05;1.70;;;12.70;99.90;;;;;;5071182;28;20052;-60
2022/09/25 08:06:03;;;;;;;5.60;1.45;;;12.70;99.90;;;;;;5071765;28;20039;-59
2022/09/25 08:08:30;;;;;;;7.97;1.80;;;12.70;99.90;;;;;;5079382;28;20097;-59
2022/09/25 08:11:00;;;;;;;6.05;1.30;;;12.60;99.90;;;;;;5080711;28;20044;-59
2022/09/25 08:13:27;;;;;;;4.60;1.30;;;12.50;99.90;;;;;;5088272;28;20166;-59
2022/09/25 08:15:53;;;;;;;8.35;2.67;;;12.50;99.90;;;;;;5087509;28;20055;-59
2022/09/25 08:18:19;;;;;;;10.23;4.47;;;12.40;99.90;;;;;;5062593;28;20048;-59
2022/09/25 08:20:45;;;;;;;14.48;12.68;;;12.40;99.90;;;;;;5085181;28;20052;-59
2022/09/25 08:23:10;;;;;;;18.85;10.80;;;12.40;99.90;;;;;;5069625;28;20404;-60
2022/09/25 08:25:37;;;;;;;14.27;11.75;;;12.40;99.90;;;;;;5070819;28;20063;-59
2022/09/25 08:28:07;;;;;;;14.43;10.93;;;12.40;99.90;;;;;;5065134;28;20174;-59
2022/09/25 08:30:33;;;;;;;10.40;7.00;;;12.40;99.90;;;;;;5045326;28;20049;-59
2022/09/25 08:32:59;;;;;;;9.32;6.10;;;12.50;99.90;;;;;;5068041;28;20523;-59
2022/09/25 08:35:26;;;;;;;7.88;2.10;;;12.60;99.90;;;;;;5069976;28;20051;-59
2022/09/25 08:37:52;;;;;;;4.45;1.10;;;12.70;99.90;;;;;;5083187;28;20036;-59
2022/09/25 08:40:23;;;;;;;3.22;0.93;;;12.90;99.90;;;;;;5086702;28;20046;-59
2022/09/25 08:42:51;;;;;;;2.17;0.80;;;13.00;99.90;;;;;;5081133;28;20115;-59
2022/09/25 08:51:12;;;;;;;4.28;0.77;;;13.60;99.90;;;;;;5093149;28;20318;-59
2022/09/25 08:53:39;;;;;;;3.25;1.08;;;13.80;99.90;;;;;;5091294;28;20154;-59
2022/09/25 08:56:16;;;;;;;2.10;0.90;;;14.00;99.90;;;;;;5088570;28;20051;-59
2022/09/25 08:59:03;;;;;;;3.55;1.02;;;14.10;99.90;;;;;;5090327;28;20036;-59
2022/09/25 09:01:41;;;;;;;2.78;0.80;;;14.10;99.90;;;;;;5095049;28;20047;-59
2022/09/25 09:04:31;;;;;;;2.67;0.80;;;14.10;99.90;;;;;;5094091;28;20040;-59
2022/09/25 09:07:06;;;;;;;2.58;0.80;;;14.10;99.90;;;;;;5072962;28;20044;-59
2022/09/25 09:09:46;;;;;;;2.65;0.80;;;14.10;99.90;;;;;;5080588;28;20103;-59
2022/09/25 09:12:16;;;;;;;2.97;0.82;;;14.10;99.90;;;;;;5094765;28;20081;-59
2022/09/25 09:14:51;;;;;;;3.78;0.90;;;14.10;99.90;;;;;;5062623;28;20048;-59
2022/09/25 09:17:23;;;;;;;1.73;0.80;;;14.20;99.90;;;;;;5064868;28;20044;-59
2022/09/25 09:20:26;;;;;;;4.28;1.15;;;14.20;99.90;;;;;;5084418;28;20143;-59
2022/09/25 09:22:52;;;;;;;3.72;1.15;;;14.20;99.90;;;;;;5080684;28;21533;-59
2022/09/25 09:25:29;;;;;;;4.40;0.60;;;14.20;99.90;;;;;;5079831;28;20413;-59
2022/09/25 09:28:10;;;;;;;3.85;0.80;;;14.20;99.90;;;;;;5089686;28;20479;-58
2022/09/25 09:30:48;;;;;;;3.13;0.82;;;14.20;99.90;;;;;;5077115;28;20102;-59
2022/09/25 09:33:33;;;;;;;2.85;0.77;;;14.30;99.90;;;;;;5077275;28;20501;-58
2022/09/25 09:36:15;;;;;;;4.25;0.80;;;14.30;99.90;;;;;;5074709;28;20040;-58
2022/09/25 09:39:04;;;;;;;3.38;1.02;;;14.40;99.90;;;;;;5060429;28;20110;-59
2022/09/25 09:41:53;;;;;;;6.55;1.00;;;14.40;99.90;;;;;;5085096;28;20480;-59
2022/09/25 09:44:52;;;;;;;4.38;1.13;;;14.40;99.90;;;;;;5056410;28;20055;-58
2022/09/25 09:47:49;;;;;;;3.55;0.90;;;14.40;99.90;;;;;;5091212;28;20051;-60
2022/09/25 09:50:36;;;;;;;4.68;1.05;;;14.40;99.90;;;;;;5085068;28;20524;-60
2022/09/25 09:53:09;;;;;;;3.53;0.85;;;14.40;99.90;;;;;;5093140;28;20047;-59
2022/09/25 09:55:49;;;;;;;1.95;0.57;;;14.30;99.90;;;;;;5098924;28;20132;-59
2022/09/25 09:58:47;;;;;;;1.85;0.73;;;14.30;99.90;;;;;;5098400;28;20044;-59
2022/09/25 10:01:21;;;;;;;4.40;1.20;;;14.50;99.90;;;;;;5096057;28;20040;-59
2022/09/25 10:03:52;;;;;;;2.30;0.70;;;14.70;99.90;;;;;;5075986;28;20044;-59
2022/09/25 10:06:29;;;;;;;5.25;0.82;;;14.80;99.90;;;;;;5077343;28;20094;-59
2022/09/25 10:08:55;;;;;;;4.28;0.90;;;15.00;99.90;;;;;;5076817;28;20112;-59
2022/09/25 10:11:21;;;;;;;5.30;1.00;;;15.10;99.90;;;;;;5076275;28;20461;-59
2022/09/25 10:13:47;;;;;;;3.53;1.00;;;15.10;99.90;;;;;;5094658;28;20036;-59
2022/09/25 10:16:22;;;;;;;3.53;1.10;;;15.00;99.90;;;;;;5077014;28;20056;-59
2022/09/25 10:19:04;;;;;;;3.78;1.05;;;14.90;99.90;;;;;;5075675;28;20051;-59
2022/09/25 10:21:37;;;;;;;5.55;1.30;;;14.80;99.90;;;;;;5076985;28;20044;-59
2022/09/25 10:24:03;;;;;;;3.13;1.00;;;14.70;99.90;;;;;;5093368;28;20048;-59
2022/09/25 10:26:39;;;;;;;6.15;1.90;;;14.50;99.90;;;;;;5076927;28;20391;-59
2022/09/25 10:29:19;;;;;;;4.70;1.25;;;14.50;99.90;;;;;;5094108;28;20039;-59
2022/09/25 10:31:45;;;;;;;3.58;0.98;;;14.40;99.90;;;;;;5093579;28;20043;-59
2022/09/25 10:34:21;;;;;;;2.45;1.10;;;14.30;99.90;;;;;;5076626;28;20040;-59
2022/09/25 10:36:51;;;;;;;1.83;0.70;;;14.40;99.90;;;;;;5076136;28;20044;-59
2022/09/25 10:39:32;;;;;;;5.28;0.82;;;14.50;99.90;;;;;;5075907;28;20540;-59
2022/09/25 10:41:59;;;;;;;3.90;1.10;;;14.70;99.90;;;;;;5093948;28;20072;-59
2022/09/25 10:44:34;;;;;;;2.60;0.70;;;14.80;99.90;;;;;;5076277;28;20047;-59
2022/09/25 10:50:20;;;;;;;7.72;1.60;;;15.20;99.90;;;;;;5094069;28;20047;-59
2022/09/25 10:52:57;;;;;;;4.47;0.95;;;15.40;99.90;;;;;;5075243;28;20457;-59
2022/09/25 10:55:50;;;;;;;14.52;1.92;;;15.40;99.90;;;;;;5076344;28;20044;-59
2022/09/25 10:58:28;;;;;;;4.53;1.15;;;15.40;99.90;;;;;;5076245;28;20042;-59
2022/09/25 11:00:57;;;;;;;3.17;1.00;;;15.30;99.90;;;;;;5074770;28;20393;-59
2022/09/25 11:03:33;;;;;;;3.45;0.88;;;15.20;99.90;;;;;;5093905;28;20114;-59
2022/09/25 11:06:01;;;;;;;6.43;1.90;;;15.20;99.90;;;;;;5093361;28;20484;-59
2022/09/25 11:08:36;;;;;;;3.55;0.88;;;15.10;99.90;;;;;;5058498;28;20084;-59
2022/09/25 11:11:04;;;;;;;7.32;1.38;;;15.10;99.90;;;;;;5092941;28;20065;-59
2022/09/25 11:13:47;;;;;;;6.32;1.58;;;15.10;99.90;;;;;;5075147;28;20549;-59
2022/09/25 11:16:13;;;;;;;6.40;1.00;;;15.10;99.90;;;;;;5094129;28;20063;-60
2022/09/25 11:18:44;;;;;;;6.10;1.17;;;15.10;99.90;;;;;;5075682;28;20527;-59
2022/09/25 11:21:38;;;;;;;5.28;1.55;;;15.10;99.90;;;;;;5074745;28;20048;-59
2022/09/25 11:24:04;;;;;;;4.20;1.13;;;15.10;99.90;;;;;;5038502;28;20063;-59
2022/09/25 11:26:35;;;;;;;3.40;0.95;;;15.00;99.90;;;;;;5075443;28;20036;-59
2022/09/25 11:29:31;;;;;;;2.97;0.80;;;15.00;99.90;;;;;;5092497;28;20074;-59
2022/09/25 11:32:00;;;;;;;;;;;15.00;99.90;;;;;;5075623;28;20059;-59
2022/09/25 11:34:51;;;;;;;2.83;0.90;;;15.00;99.90;;;;;;5092836;28;19972;-59
2022/09/25 11:37:38;;;;;;;3.08;0.90;;;15.10;99.90;;;;;;5093400;28;20040;-59
2022/09/25 11:43:16;;;;;;;3.63;1.02;;;15.50;99.90;;;;;;5074321;28;20056;-59
2022/09/25 11:45:58;;;;;;;5.60;1.13;;;15.70;99.90;;;;;;5075443;28;20043;-59
2022/09/25 11:48:56;;;;;;;3.17;0.80;;;15.80;99.90;;;;;;5092590;28;20032;-59
2022/09/25 11:52:04;;;;;;;2.58;0.82;;;15.80;99.90;;;;;;5075408;28;20048;-59
2022/09/25 11:55:05;;;;;;;5.50;1.63;;;15.60;99.90;;;;;;5075222;28;20048;-59
2022/09/25 11:57:59;;;;;;;1.73;0.63;;;15.60;99.90;;;;;;5052788;28;20131;-59
2022/09/25 12:00:48;;;;;;;7.82;1.05;;;15.50;99.90;;;;;;5075170;28;20044;-59
2022/09/25 12:03:13;;;;;;;3.78;1.00;;;15.40;99.90;;;;;;5074355;28;20488;-59
2022/09/25 12:05:51;;;;;;;3.33;0.98;;;15.50;99.90;;;;;;5092956;28;20047;-59
2022/09/25 12:08:26;;;;;;;4.38;1.30;;;15.50;99.90;;;;;;5075073;28;20377;-59
2022/09/25 12:11:30;;;;;;;3.90;1.27;;;15.50;99.90;;;;;;5091483;28;20380;-59
2022/09/25 12:14:04;;;;;;;3.65;0.73;;;15.50;99.90;;;;;;5074284;28;20533;-60
2022/09/25 12:16:59;;;;;;;3.65;0.80;;;15.50;99.90;;;;;;5091963;28;20048;-60
2022/09/25 12:19:57;;;;;;;1.83;0.70;;;15.60;99.90;;;;;;5093258;28;20047;-59
2022/09/25 12:22:47;;;;;;;1.95;0.50;;;15.60;99.80;;;;;;5073706;28;20056;-60
2022/09/25 12:26:04;;;;;;;2.90;0.77;;;15.60;99.80;;;;;;5073408;28;20097;-59
2022/09/25 12:29:14;;;;;;;7.55;1.23;;;15.50;99.90;;;;;;5074400;28;20051;-59
2022/09/25 12:31:52;;;;;;;3.03;0.90;;;15.60;99.90;;;;;;5057040;28;20047;-59
2022/09/25 12:34:54;;;;;;;4.22;0.90;;;15.70;99.90;;;;;;5092583;28;20398;-59
2022/09/25 12:37:30;;;;;;;5.70;1.13;;;15.70;99.90;;;;;;5057902;28;20044;-59
2022/09/25 12:40:03;;;;;;;3.63;0.98;;;15.80;99.90;;;;;;5073832;28;20132;-59
2022/09/25 12:42:37;;;;;;;3.65;1.17;;;16.00;99.90;;;;;;5074439;28;20040;-60
2022/09/25 12:45:20;;;;;;;3.45;0.98;;;16.00;99.80;;;;;;5072950;28;20511;-59
2022/09/25 12:48:10;;;;;;;6.10;1.15;;;16.00;99.90;;;;;;5073776;28;20080;-60
2022/09/25 12:50:56;;;;;;;3.42;0.80;;;16.00;99.50;;;;;;5092354;28;20493;-60
2022/09/25 12:53:40;;;;;;;4.53;1.00;;;16.00;99.10;;;;;;5073598;28;20051;-60
2022/09/25 12:56:15;;;;;;;3.38;0.70;;;16.00;98.20;;;;;;5091628;28;20392;-59
2022/09/25 12:58:59;;;;;;;5.30;1.20;;;16.00;98.60;;;;;;5091710;28;20042;-60
2022/09/25 13:02:03;;;;;;;2.90;0.90;;;16.00;98.90;;;;;;5074216;28;20043;-60
2022/09/25 13:04:41;;;;;;;4.03;1.00;;;16.10;99.20;;;;;;5069305;28;20099;-59
2022/09/25 13:07:25;;;;;;;7.38;0.95;;;16.20;99.00;;;;;;5090735;28;20619;-60
2022/09/25 13:09:51;;;;;;;4.50;0.95;;;16.30;98.80;;;;;;5091615;28;20036;-59
2022/09/25 13:12:36;;;;;;;5.78;1.40;;;16.30;98.80;;;;;;5092088;28;20123;-60
2022/09/25 13:15:11;;;;;;;;;;;16.20;98.90;;;;;;5073453;28;20435;-59
2022/09/25 13:17:38;;;;;;;3.47;1.05;;;15.90;99.90;;;;;;5090813;28;19962;-59
2022/09/25 13:20:26;;;;;;;3.13;0.75;;;15.70;99.90;;;;;;5090778;28;20622;-59
2022/09/25 13:23:08;;;;;;;6.60;0.93;;;15.60;99.90;;;;;;5073165;28;20052;-60
2022/09/25 13:25:43;;;;;;;3.20;1.65;;;15.50;99.90;;;;;;5092362;28;20067;-60
2022/09/25 13:28:19;;;;;;;3.97;1.02;;;15.60;99.90;;;;;;5072909;28;20044;-59
2022/09/25 13:30:58;;;;;;;2.67;0.93;;;15.70;99.90;;;;;;5091735;28;20044;-60
2022/09/25 13:33:25;;;;;;;3.42;0.70;;;15.70;99.90;;;;;;5073986;28;20123;-60
2022/09/25 13:36:05;;;;;;;4.63;1.20;;;15.60;99.90;;;;;;5093367;28;20044;-59
2022/09/25 13:41:15;;;;;;;3.78;0.80;;;15.30;99.90;;;;;;5094890;28;20051;-59